createdAt,value
2023-04-08T00:01:29.349Z,100341.47
2023-04-08T00:06:32.362Z,100338.00
2023-04-08T00:11:35.230Z,100342.41
2023-04-08T00:16:38.301Z,100336.09
2023-04-08T00:21:41.343Z,100331.69
2023-04-08T00:26:44.338Z,100326.22
2023-04-08T00:31:47.748Z,100345.53
2023-04-08T00:36:50.698Z,100336.72
2023-04-08T00:41:53.582Z,100350.44
2023-04-08T00:46:56.533Z,100346.13
2023-04-08T00:52:00.703Z,100346.13
2023-04-08T00:57:05.475Z,100351.81
2023-04-08T01:02:23.892Z,100350.41
2023-04-08T01:07:40.374Z,100353.97
2023-04-08T01:13:00.591Z,100350.63
2023-04-08T01:18:09.295Z,100348.81
2023-04-08T01:24:11.524Z,100340.97
2023-04-08T01:29:15.948Z,100343.94
2023-04-08T01:34:21.417Z,100344.03
2023-04-08T01:39:26.566Z,100346.16
2023-04-08T01:44:31.078Z,100344.28
2023-04-08T01:49:34.750Z,100350.47
2023-04-08T01:54:38.333Z,100349.00
2023-04-08T01:59:42.443Z,100347.56
2023-04-08T02:04:45.559Z,100341.47
2023-04-08T02:09:48.673Z,100346.84
2023-04-08T02:14:51.820Z,100338.59
2023-04-08T02:20:18.321Z,100344.53
2023-04-08T02:25:25.296Z,100338.59
2023-04-08T02:30:30.025Z,100340.59
2023-04-08T02:35:34.049Z,100338.72
2023-04-08T02:40:38.172Z,100339.31
2023-04-08T02:45:44.909Z,100338.97
2023-04-08T02:50:47.931Z,100341.59
2023-04-08T02:55:51.165Z,100339.81
2023-04-08T03:00:54.387Z,100343.25
2023-04-08T03:05:58.571Z,100348.50
2023-04-08T03:11:01.640Z,100349.22
2023-04-08T03:16:06.347Z,100348.00
2023-04-08T03:21:09.474Z,100357.34
2023-04-08T03:26:13.219Z,100355.53
2023-04-08T03:31:16.501Z,100359.25
2023-04-08T03:36:19.409Z,100359.00
2023-04-08T03:41:22.383Z,100361.63
2023-04-08T03:46:25.711Z,100363.09
2023-04-08T03:51:28.842Z,100359.50
2023-04-08T03:56:31.617Z,100365.59
2023-04-08T04:01:34.723Z,100369.75
2023-04-08T04:06:37.967Z,100379.41
2023-04-08T04:11:41.034Z,100379.34
2023-04-08T04:16:44.130Z,100380.16
2023-04-08T04:21:47.304Z,100376.19
2023-04-08T04:26:50.397Z,100392.31
2023-04-08T04:31:53.394Z,100391.50
2023-04-08T04:36:56.673Z,100389.81
2023-04-08T04:41:59.660Z,100391.38
2023-04-08T04:47:02.624Z,100395.78
2023-04-08T04:52:06.127Z,100396.41
2023-04-08T04:57:09.224Z,100392.09
2023-04-08T05:02:12.251Z,100398.09
2023-04-08T05:07:15.407Z,100407.50
2023-04-08T05:12:20.621Z,100407.28
2023-04-08T05:17:23.613Z,100405.22
2023-04-08T05:22:26.559Z,100415.81
2023-04-08T05:27:30.038Z,100418.84
2023-04-08T05:32:33.064Z,100429.13
2023-04-08T05:37:36.195Z,100419.22
2023-04-08T05:42:39.304Z,100433.09
2023-04-08T05:47:42.239Z,100436.22
2023-04-08T05:52:45.838Z,100431.06
2023-04-08T05:57:48.760Z,100433.59
2023-04-08T06:02:51.947Z,100432.41
2023-04-08T06:07:55.052Z,100433.22
2023-04-08T06:12:57.795Z,100428.81
2023-04-08T06:18:01.075Z,100439.31
2023-04-08T06:23:04.244Z,100445.81
2023-04-08T06:28:07.778Z,100447.47
2023-04-08T06:33:10.862Z,100450.09
2023-04-08T06:38:28.282Z,100456.06
2023-04-08T06:43:32.789Z,100465.97
2023-04-08T06:48:37.830Z,100473.09
2023-04-08T06:53:41.281Z,100464.91
2023-04-08T06:58:44.241Z,100473.28
2023-04-08T07:03:47.344Z,100470.78
2023-04-08T07:08:50.612Z,100482.84
2023-04-08T07:13:53.684Z,100478.41
2023-04-08T07:18:57.062Z,100483.34
2023-04-08T07:24:00.052Z,100492.06
2023-04-08T07:29:03.516Z,100497.19
2023-04-08T07:34:06.430Z,100502.44
2023-04-08T07:39:09.382Z,100502.44
2023-04-08T07:44:12.413Z,100503.16
2023-04-08T07:49:15.563Z,100518.56
2023-04-08T07:54:18.837Z,100527.53
2023-04-08T07:59:21.801Z,100533.81
2023-04-08T08:04:26.300Z,100542.31
2023-04-08T08:09:31.576Z,100538.41
2023-04-08T08:14:35.142Z,100536.41
2023-04-08T08:19:38.248Z,100535.72
2023-04-08T08:24:41.525Z,100535.91
2023-04-08T08:29:44.492Z,100530.66
2023-04-08T08:34:47.223Z,100535.53
2023-04-08T08:39:50.394Z,100538.44
2023-04-08T08:44:54.696Z,100541.56
2023-04-08T08:49:57.814Z,100554.34
2023-04-08T08:55:01.488Z,100553.41
2023-04-08T09:00:05.492Z,100548.00
2023-04-08T09:05:09.092Z,100568.41
2023-04-08T09:10:12.129Z,100576.41
2023-04-08T09:15:15.037Z,100577.03
2023-04-08T09:20:17.948Z,100583.72
2023-04-08T09:25:30.138Z,100579.34
2023-04-08T09:30:33.756Z,100584.09
2023-04-08T09:35:36.787Z,100588.06
2023-04-08T09:40:41.641Z,100587.72
2023-04-08T09:45:46.791Z,100593.31
2023-04-08T09:50:52.773Z,100597.53
2023-04-08T09:55:58.581Z,100600.19
2023-04-08T10:01:02.501Z,100595.66
2023-04-08T10:06:08.623Z,100597.09
2023-04-08T10:11:11.768Z,100602.53
2023-04-08T10:16:23.094Z,100605.78
2023-04-08T10:21:43.667Z,100599.31
2023-04-08T10:26:48.837Z,100604.59
2023-04-08T10:31:52.212Z,100598.63
2023-04-08T10:36:59.028Z,100591.47
2023-04-08T10:42:02.791Z,100593.97
2023-04-08T10:47:05.710Z,100586.19
2023-04-08T10:52:09.584Z,100590.28
2023-04-08T10:57:12.566Z,100595.53
2023-04-08T11:02:16.714Z,100596.72
2023-04-08T11:07:21.331Z,100591.22
2023-04-08T11:12:24.296Z,100596.25
2023-04-08T11:17:28.104Z,100584.72
2023-04-08T11:22:33.550Z,100591.66
2023-04-08T11:27:37.593Z,100585.69
2023-04-08T11:32:41.548Z,100590.34
2023-04-08T11:37:45.486Z,100593.00
2023-04-08T11:42:48.876Z,100595.97
2023-04-08T11:47:52.041Z,100602.09
2023-04-08T11:52:55.550Z,100598.41
2023-04-08T11:58:04.418Z,100592.66
2023-04-08T12:03:08.413Z,100592.63
2023-04-08T12:08:11.655Z,100595.41
2023-04-08T12:13:14.688Z,100581.72
2023-04-08T12:18:17.739Z,100592.47
2023-04-08T12:23:20.627Z,100589.63
2023-04-08T12:28:23.608Z,100581.28
2023-04-08T12:33:26.565Z,100590.66
2023-04-08T12:38:29.618Z,100592.09
2023-04-08T12:43:33.161Z,100585.22
2023-04-08T12:48:36.885Z,100582.81
2023-04-08T12:53:39.918Z,100580.31
2023-04-08T12:58:42.902Z,100586.34
2023-04-08T13:03:47.882Z,100584.56
2023-04-08T13:08:51.294Z,100580.97
2023-04-08T13:13:54.455Z,100581.69
2023-04-08T13:18:57.459Z,100583.97
2023-04-08T13:24:00.288Z,100584.63
2023-04-08T13:29:03.640Z,100580.50
2023-04-08T13:34:07.536Z,100570.16
2023-04-08T13:39:10.649Z,100568.63
2023-04-08T13:44:13.616Z,100575.34
2023-04-08T13:49:16.639Z,100566.69
2023-04-08T13:54:19.357Z,100569.06
2023-04-08T13:59:22.468Z,100571.44
2023-04-08T14:04:25.518Z,100567.03
2023-04-08T14:09:28.652Z,100568.34
2023-04-08T14:14:31.793Z,100567.69
2023-04-08T14:19:35.192Z,100563.69
2023-04-08T14:24:38.165Z,100570.47
2023-04-08T14:29:41.529Z,100568.91
2023-04-08T14:34:44.793Z,100571.81
2023-04-08T14:39:47.774Z,100579.09
2023-04-08T14:44:50.814Z,100573.38
2023-04-08T14:49:53.813Z,100577.34
2023-04-08T14:54:56.767Z,100566.75
2023-04-08T14:59:59.712Z,100568.38
2023-04-08T15:05:02.765Z,100575.91
2023-04-08T15:10:06.532Z,100573.78
2023-04-08T15:15:10.271Z,100574.53
2023-04-08T15:20:13.588Z,100579.13
2023-04-08T15:25:16.651Z,100580.69
2023-04-08T15:30:24.574Z,100580.63
2023-04-08T15:35:28.123Z,100581.00
2023-04-08T15:40:34.427Z,100591.19
2023-04-08T15:45:42.808Z,100594.81
2023-04-08T15:50:45.941Z,100598.53
2023-04-08T15:55:50.296Z,100600.44
2023-04-08T16:00:55.853Z,100619.69
2023-04-08T16:05:58.922Z,100610.59
2023-04-08T16:11:04.513Z,100615.88
2023-04-08T16:16:08.856Z,100620.25
2023-04-08T16:21:12.283Z,100615.88
2023-04-08T16:26:15.481Z,100622.81
2023-04-08T16:31:20.000Z,100631.66
2023-04-08T16:36:23.068Z,100629.59
2023-04-08T16:41:26.094Z,100634.25
2023-04-08T16:46:29.017Z,100644.88
2023-04-08T16:51:32.007Z,100640.22
2023-04-08T16:56:35.120Z,100644.75
2023-04-08T17:01:38.427Z,100651.06
2023-04-08T17:06:42.355Z,100642.81
2023-04-08T17:11:45.690Z,100647.34
2023-04-08T17:16:49.189Z,100655.59
2023-04-08T17:21:52.395Z,100655.59
2023-04-08T17:26:57.572Z,100668.84
2023-04-08T17:32:00.729Z,100669.06
2023-04-08T17:37:05.393Z,100669.31
2023-04-08T17:42:08.795Z,100679.44
2023-04-08T17:47:11.886Z,100680.59
2023-04-08T17:52:14.805Z,100683.69
2023-04-08T17:57:17.806Z,100682.97
2023-04-08T18:02:20.970Z,100687.28
2023-04-08T18:07:24.143Z,100691.19
2023-04-08T18:12:29.050Z,100693.19
2023-04-08T18:17:32.087Z,100700.47
2023-04-08T18:22:35.067Z,100706.78
2023-04-08T18:27:38.213Z,100709.00
2023-04-08T18:32:41.302Z,100711.13
2023-04-08T18:37:44.268Z,100713.25
2023-04-08T18:42:47.224Z,100711.06
2023-04-08T18:47:50.409Z,100719.59
2023-04-08T18:52:53.919Z,100720.97
2023-04-08T18:57:56.900Z,100721.50
2023-04-08T19:03:00.150Z,100732.34
2023-04-08T19:08:03.427Z,100737.47
2023-04-08T19:13:06.406Z,100726.03
2023-04-08T19:18:09.899Z,100727.72
2023-04-08T19:23:14.126Z,100732.00
2023-04-08T19:28:17.177Z,100737.25
2023-04-08T19:33:21.125Z,100736.53
2023-04-08T19:38:26.004Z,100734.56
2023-04-08T19:43:32.084Z,100744.94
2023-04-08T19:48:35.099Z,100750.91
2023-04-08T19:53:37.945Z,100753.47
2023-04-08T19:58:41.276Z,100750.91
2023-04-08T20:03:50.640Z,100741.78
2023-04-08T20:08:54.926Z,100749.25
2023-04-08T20:13:58.098Z,100743.78
2023-04-08T20:19:00.930Z,100746.31
2023-04-08T20:24:03.900Z,100746.00
2023-04-08T20:29:07.098Z,100742.19
2023-04-08T20:34:10.743Z,100754.16
2023-04-08T20:39:13.704Z,100746.28
2023-04-08T20:44:17.905Z,100748.78
2023-04-08T20:49:21.179Z,100754.88
2023-04-08T20:54:25.165Z,100752.69
2023-04-08T20:59:28.327Z,100748.81
2023-04-08T21:04:31.715Z,100757.66
2023-04-08T21:09:34.768Z,100759.53
2023-04-08T21:14:37.923Z,100765.72
2023-04-08T21:19:42.594Z,100772.88
2023-04-08T21:24:45.730Z,100770.25
2023-04-08T21:29:52.694Z,100766.47
2023-04-08T21:34:55.826Z,100773.59
2023-04-08T21:39:59.165Z,100766.66
2023-04-08T21:45:02.271Z,100768.69
2023-04-08T21:50:06.354Z,100768.75
2023-04-08T21:55:09.891Z,100757.75
2023-04-08T22:00:13.765Z,100772.75
2023-04-08T22:05:16.675Z,100755.66
2023-04-08T22:10:19.825Z,100768.16
2023-04-08T22:15:23.132Z,100763.22
2023-04-08T22:20:26.285Z,100756.41
2023-04-08T22:25:29.240Z,100767.50
2023-04-08T22:30:32.041Z,100765.84
2023-04-08T22:35:36.136Z,100763.22
2023-04-08T22:40:39.556Z,100758.59
2023-04-08T22:45:42.866Z,100756.81
2023-04-08T22:50:45.867Z,100765.00
2023-04-08T22:55:49.133Z,100767.63
2023-04-08T23:00:52.231Z,100761.13
2023-04-08T23:05:55.819Z,100769.63
2023-04-08T23:10:58.886Z,100766.78
2023-04-08T23:16:02.519Z,100759.03
2023-04-08T23:21:06.883Z,100771.09
2023-04-08T23:26:21.348Z,100766.66
2023-04-08T23:31:24.315Z,100768.56
2023-04-08T23:36:27.772Z,100758.25
2023-04-08T23:41:31.446Z,100757.75
2023-04-08T23:46:34.534Z,100755.75
2023-04-08T23:51:39.019Z,100754.72
2023-04-08T23:56:42.353Z,100757.22
